sensor_id;sensor_type;location;lat;lon;timestamp;P1;durP1;ratioP1;P2;durP2;ratioP2
26654;SDS011;14278;50.784;4.630;2023-07-22T00:01:02;2.40;;;2.17;;
26654;SDS011;14278;50.784;4.630;2023-07-22T00:03:28;2.90;;;2.60;;
26654;SDS011;14278;50.784;4.630;2023-07-22T00:06:07;3.80;;;3.30;;
26654;SDS011;14278;50.784;4.630;2023-07-22T00:08:35;3.03;;;2.70;;
26654;SDS011;14278;50.784;4.630;2023-07-22T00:11:02;3.87;;;2.80;;
26654;SDS011;14278;50.784;4.630;2023-07-22T00:13:29;3.20;;;2.90;;
26654;SDS011;14278;50.784;4.630;2023-07-22T00:15:55;3.20;;;2.90;;
26654;SDS011;14278;50.784;4.630;2023-07-22T00:18:22;4.93;;;2.87;;
26654;SDS011;14278;50.784;4.630;2023-07-22T00:20:49;2.60;;;2.40;;
26654;SDS011;14278;50.784;4.630;2023-07-22T00:23:17;2.97;;;2.67;;
26654;SDS011;14278;50.784;4.630;2023-07-22T00:25:43;3.00;;;2.63;;
26654;SDS011;14278;50.784;4.630;2023-07-22T00:28:08;5.63;;;3.10;;
26654;SDS011;14278;50.784;4.630;2023-07-22T00:30:35;2.77;;;2.57;;
26654;SDS011;14278;50.784;4.630;2023-07-22T00:33:00;4.00;;;2.80;;
26654;SDS011;14278;50.784;4.630;2023-07-22T00:35:27;5.80;;;3.07;;
26654;SDS011;14278;50.784;4.630;2023-07-22T00:37:52;3.70;;;2.73;;
26654;SDS011;14278;50.784;4.630;2023-07-22T00:40:18;5.07;;;3.17;;
26654;SDS011;14278;50.784;4.630;2023-07-22T00:42:44;3.70;;;3.00;;
26654;SDS011;14278;50.784;4.630;2023-07-22T00:45:10;3.10;;;2.80;;
26654;SDS011;14278;50.784;4.630;2023-07-22T00:47:36;3.37;;;2.93;;
26654;SDS011;14278;50.784;4.630;2023-07-22T00:50:03;2.97;;;2.67;;
26654;SDS011;14278;50.784;4.630;2023-07-22T00:52:31;5.37;;;3.53;;
26654;SDS011;14278;50.784;4.630;2023-07-22T00:54:58;5.23;;;3.00;;
26654;SDS011;14278;50.784;4.630;2023-07-22T00:57:24;4.30;;;3.53;;
26654;SDS011;14278;50.784;4.630;2023-07-22T00:59:50;3.67;;;3.37;;
26654;SDS011;14278;50.784;4.630;2023-07-22T01:02:16;3.77;;;3.20;;
26654;SDS011;14278;50.784;4.630;2023-07-22T01:04:43;5.40;;;3.03;;
26654;SDS011;14278;50.784;4.630;2023-07-22T01:07:09;3.67;;;3.10;;
26654;SDS011;14278;50.784;4.630;2023-07-22T01:09:39;5.17;;;3.43;;
26654;SDS011;14278;50.784;4.630;2023-07-22T01:12:06;3.10;;;2.77;;
26654;SDS011;14278;50.784;4.630;2023-07-22T01:14:37;7.10;;;3.40;;
26654;SDS011;14278;50.784;4.630;2023-07-22T01:17:04;3.30;;;3.00;;
26654;SDS011;14278;50.784;4.630;2023-07-22T01:19:31;4.13;;;3.10;;
26654;SDS011;14278;50.784;4.630;2023-07-22T01:22:02;3.80;;;3.37;;
26654;SDS011;14278;50.784;4.630;2023-07-22T01:24:30;5.40;;;3.87;;
26654;SDS011;14278;50.784;4.630;2023-07-22T01:26:56;4.50;;;3.90;;
26654;SDS011;14278;50.784;4.630;2023-07-22T01:29:22;5.83;;;4.37;;
26654;SDS011;14278;50.784;4.630;2023-07-22T01:31:50;4.43;;;3.43;;
26654;SDS011;14278;50.784;4.630;2023-07-22T01:34:16;4.80;;;3.67;;
26654;SDS011;14278;50.784;4.630;2023-07-22T01:36:43;8.70;;;4.03;;
26654;SDS011;14278;50.784;4.630;2023-07-22T01:39:10;5.10;;;3.70;;
26654;SDS011;14278;50.784;4.630;2023-07-22T01:41:39;3.67;;;2.97;;
26654;SDS011;14278;50.784;4.630;2023-07-22T01:44:05;4.13;;;3.27;;
26654;SDS011;14278;50.784;4.630;2023-07-22T01:46:30;3.57;;;3.13;;
26654;SDS011;14278;50.784;4.630;2023-07-22T01:48:57;5.17;;;3.27;;
26654;SDS011;14278;50.784;4.630;2023-07-22T01:51:22;3.20;;;2.73;;
26654;SDS011;14278;50.784;4.630;2023-07-22T01:53:49;3.53;;;2.40;;
26654;SDS011;14278;50.784;4.630;2023-07-22T01:56:15;3.97;;;3.00;;
26654;SDS011;14278;50.784;4.630;2023-07-22T01:58:41;3.77;;;3.37;;
26654;SDS011;14278;50.784;4.630;2023-07-22T02:01:08;5.07;;;3.43;;
26654;SDS011;14278;50.784;4.630;2023-07-22T02:03:34;4.67;;;3.67;;
26654;SDS011;14278;50.784;4.630;2023-07-22T02:06:06;4.57;;;3.03;;
26654;SDS011;14278;50.784;4.630;2023-07-22T02:08:31;11.03;;;4.03;;
26654;SDS011;14278;50.784;4.630;2023-07-22T02:11:04;5.13;;;3.43;;
26654;SDS011;14278;50.784;4.630;2023-07-22T02:13:34;4.83;;;4.13;;
26654;SDS011;14278;50.784;4.630;2023-07-22T02:16:01;4.77;;;3.63;;
26654;SDS011;14278;50.784;4.630;2023-07-22T02:18:27;4.50;;;3.90;;
26654;SDS011;14278;50.784;4.630;2023-07-22T02:20:53;4.77;;;3.93;;
26654;SDS011;14278;50.784;4.630;2023-07-22T02:23:19;4.17;;;3.50;;
26654;SDS011;14278;50.784;4.630;2023-07-22T02:25:52;5.73;;;3.53;;
26654;SDS011;14278;50.784;4.630;2023-07-22T02:28:19;6.70;;;3.93;;
26654;SDS011;14278;50.784;4.630;2023-07-22T02:30:55;7.27;;;4.50;;
26654;SDS011;14278;50.784;4.630;2023-07-22T02:33:27;4.97;;;3.77;;
26654;SDS011;14278;50.784;4.630;2023-07-22T02:35:53;7.37;;;4.00;;
26654;SDS011;14278;50.784;4.630;2023-07-22T02:38:20;6.07;;;3.53;;
26654;SDS011;14278;50.784;4.630;2023-07-22T02:40:46;5.23;;;3.07;;
26654;SDS011;14278;50.784;4.630;2023-07-22T02:43:11;4.47;;;3.50;;
26654;SDS011;14278;50.784;4.630;2023-07-22T02:45:37;7.33;;;4.00;;
26654;SDS011;14278;50.784;4.630;2023-07-22T02:48:03;4.90;;;3.27;;
26654;SDS011;14278;50.784;4.630;2023-07-22T02:50:30;3.93;;;3.30;;
26654;SDS011;14278;50.784;4.630;2023-07-22T02:52:56;7.60;;;3.97;;
26654;SDS011;14278;50.784;4.630;2023-07-22T02:55:22;5.80;;;3.77;;
26654;SDS011;14278;50.784;4.630;2023-07-22T02:57:48;4.63;;;3.20;;
26654;SDS011;14278;50.784;4.630;2023-07-22T03:00:15;5.20;;;3.73;;
26654;SDS011;14278;50.784;4.630;2023-07-22T03:02:52;4.70;;;3.37;;
26654;SDS011;14278;50.784;4.630;2023-07-22T03:05:19;6.93;;;3.80;;
26654;SDS011;14278;50.784;4.630;2023-07-22T03:07:46;5.23;;;4.73;;
26654;SDS011;14278;50.784;4.630;2023-07-22T03:10:12;5.17;;;4.00;;
26654;SDS011;14278;50.784;4.630;2023-07-22T03:12:37;7.90;;;3.90;;
26654;SDS011;14278;50.784;4.630;2023-07-22T03:15:04;3.60;;;3.03;;
26654;SDS011;14278;50.784;4.630;2023-07-22T03:17:33;5.13;;;3.83;;
26654;SDS011;14278;50.784;4.630;2023-07-22T03:20:00;4.60;;;3.60;;
26654;SDS011;14278;50.784;4.630;2023-07-22T03:22:26;3.87;;;3.17;;
26654;SDS011;14278;50.784;4.630;2023-07-22T03:24:52;4.33;;;3.97;;
26654;SDS011;14278;50.784;4.630;2023-07-22T03:27:18;7.27;;;4.57;;
26654;SDS011;14278;50.784;4.630;2023-07-22T03:29:44;9.87;;;6.60;;
26654;SDS011;14278;50.784;4.630;2023-07-22T03:32:10;9.00;;;4.77;;
26654;SDS011;14278;50.784;4.630;2023-07-22T03:34:35;5.97;;;4.03;;
26654;SDS011;14278;50.784;4.630;2023-07-22T03:37:01;9.80;;;5.33;;
26654;SDS011;14278;50.784;4.630;2023-07-22T03:39:28;6.80;;;4.57;;
26654;SDS011;14278;50.784;4.630;2023-07-22T03:41:53;8.17;;;4.70;;
26654;SDS011;14278;50.784;4.630;2023-07-22T03:44:19;4.40;;;4.00;;
26654;SDS011;14278;50.784;4.630;2023-07-22T03:46:45;5.03;;;4.17;;
26654;SDS011;14278;50.784;4.630;2023-07-22T03:49:10;6.17;;;4.53;;
26654;SDS011;14278;50.784;4.630;2023-07-22T03:51:37;7.40;;;4.87;;
26654;SDS011;14278;50.784;4.630;2023-07-22T03:54:03;6.93;;;4.80;;
26654;SDS011;14278;50.784;4.630;2023-07-22T03:56:28;4.27;;;3.70;;
26654;SDS011;14278;50.784;4.630;2023-07-22T03:58:54;5.60;;;4.10;;
26654;SDS011;14278;50.784;4.630;2023-07-22T04:01:20;4.80;;;4.23;;
26654;SDS011;14278;50.784;4.630;2023-07-22T04:03:46;7.07;;;4.63;;
26654;SDS011;14278;50.784;4.630;2023-07-22T04:06:12;5.80;;;4.00;;
26654;SDS011;14278;50.784;4.630;2023-07-22T04:08:38;9.63;;;5.33;;
26654;SDS011;14278;50.784;4.630;2023-07-22T04:11:04;7.30;;;4.70;;
26654;SDS011;14278;50.784;4.630;2023-07-22T04:13:29;5.87;;;4.60;;
26654;SDS011;14278;50.784;4.630;2023-07-22T04:15:56;5.20;;;4.20;;
26654;SDS011;14278;50.784;4.630;2023-07-22T04:18:22;5.67;;;4.47;;
26654;SDS011;14278;50.784;4.630;2023-07-22T04:20:48;6.63;;;4.77;;
26654;SDS011;14278;50.784;4.630;2023-07-22T04:23:20;8.07;;;5.30;;
26654;SDS011;14278;50.784;4.630;2023-07-22T04:25:46;6.30;;;4.57;;
26654;SDS011;14278;50.784;4.630;2023-07-22T04:28:12;5.70;;;4.27;;
26654;SDS011;14278;50.784;4.630;2023-07-22T04:30:38;5.10;;;4.60;;
26654;SDS011;14278;50.784;4.630;2023-07-22T04:33:05;4.57;;;3.93;;
26654;SDS011;14278;50.784;4.630;2023-07-22T04:35:31;5.23;;;3.83;;
26654;SDS011;14278;50.784;4.630;2023-07-22T04:37:58;8.47;;;4.50;;
26654;SDS011;14278;50.784;4.630;2023-07-22T04:40:24;5.00;;;4.13;;
26654;SDS011;14278;50.784;4.630;2023-07-22T04:42:51;5.63;;;4.13;;
26654;SDS011;14278;50.784;4.630;2023-07-22T04:45:17;6.23;;;4.63;;
26654;SDS011;14278;50.784;4.630;2023-07-22T04:47:45;4.60;;;3.90;;
26654;SDS011;14278;50.784;4.630;2023-07-22T04:50:13;6.17;;;4.33;;
26654;SDS011;14278;50.784;4.630;2023-07-22T04:52:41;6.20;;;4.30;;
26654;SDS011;14278;50.784;4.630;2023-07-22T04:55:08;5.53;;;4.23;;
26654;SDS011;14278;50.784;4.630;2023-07-22T04:57:35;9.63;;;4.07;;
26654;SDS011;14278;50.784;4.630;2023-07-22T05:00:02;6.43;;;3.90;;
26654;SDS011;14278;50.784;4.630;2023-07-22T05:02:32;4.27;;;3.67;;
26654;SDS011;14278;50.784;4.630;2023-07-22T05:04:58;4.57;;;3.67;;
26654;SDS011;14278;50.784;4.630;2023-07-22T05:07:24;5.10;;;3.90;;
26654;SDS011;14278;50.784;4.630;2023-07-22T05:09:50;4.73;;;3.73;;
26654;SDS011;14278;50.784;4.630;2023-07-22T05:12:17;5.33;;;4.23;;
26654;SDS011;14278;50.784;4.630;2023-07-22T05:14:44;4.13;;;3.40;;
26654;SDS011;14278;50.784;4.630;2023-07-22T05:17:13;5.07;;;4.17;;
26654;SDS011;14278;50.784;4.630;2023-07-22T05:19:39;4.57;;;3.60;;
26654;SDS011;14278;50.784;4.630;2023-07-22T05:22:06;4.63;;;4.13;;
26654;SDS011;14278;50.784;4.630;2023-07-22T05:24:32;6.93;;;4.13;;
26654;SDS011;14278;50.784;4.630;2023-07-22T05:26:58;5.87;;;4.40;;
26654;SDS011;14278;50.784;4.630;2023-07-22T05:29:25;8.37;;;4.60;;
26654;SDS011;14278;50.784;4.630;2023-07-22T05:31:50;6.60;;;3.97;;
26654;SDS011;14278;50.784;4.630;2023-07-22T05:34:16;6.67;;;4.03;;
26654;SDS011;14278;50.784;4.630;2023-07-22T05:36:42;6.93;;;3.97;;
26654;SDS011;14278;50.784;4.630;2023-07-22T05:39:08;4.73;;;3.33;;
26654;SDS011;14278;50.784;4.630;2023-07-22T05:41:34;5.17;;;3.83;;
26654;SDS011;14278;50.784;4.630;2023-07-22T05:44:01;4.50;;;3.73;;
26654;SDS011;14278;50.784;4.630;2023-07-22T05:46:26;6.40;;;4.20;;
26654;SDS011;14278;50.784;4.630;2023-07-22T05:48:52;5.20;;;3.63;;
26654;SDS011;14278;50.784;4.630;2023-07-22T05:51:19;6.43;;;3.57;;
26654;SDS011;14278;50.784;4.630;2023-07-22T05:53:45;3.13;;;2.70;;
26654;SDS011;14278;50.784;4.630;2023-07-22T05:56:11;5.03;;;3.43;;
26654;SDS011;14278;50.784;4.630;2023-07-22T05:58:37;3.43;;;2.97;;
26654;SDS011;14278;50.784;4.630;2023-07-22T06:01:03;9.83;;;3.93;;
26654;SDS011;14278;50.784;4.630;2023-07-22T06:03:29;4.13;;;3.33;;
26654;SDS011;14278;50.784;4.630;2023-07-22T06:05:55;4.97;;;3.43;;
26654;SDS011;14278;50.784;4.630;2023-07-22T06:08:21;6.57;;;3.70;;
26654;SDS011;14278;50.784;4.630;2023-07-22T06:10:47;5.20;;;3.83;;
26654;SDS011;14278;50.784;4.630;2023-07-22T06:13:12;11.27;;;3.70;;
26654;SDS011;14278;50.784;4.630;2023-07-22T06:15:38;3.77;;;2.83;;
26654;SDS011;14278;50.784;4.630;2023-07-22T06:18:04;3.97;;;3.37;;
26654;SDS011;14278;50.784;4.630;2023-07-22T06:20:34;5.10;;;3.90;;
26654;SDS011;14278;50.784;4.630;2023-07-22T06:23:01;3.03;;;2.57;;
26654;SDS011;14278;50.784;4.630;2023-07-22T06:25:27;4.40;;;3.10;;
26654;SDS011;14278;50.784;4.630;2023-07-22T06:27:53;4.30;;;3.17;;
26654;SDS011;14278;50.784;4.630;2023-07-22T06:30:19;3.90;;;3.07;;
26654;SDS011;14278;50.784;4.630;2023-07-22T06:32:45;4.90;;;2.90;;
26654;SDS011;14278;50.784;4.630;2023-07-22T06:35:11;7.23;;;3.23;;
26654;SDS011;14278;50.784;4.630;2023-07-22T06:37:37;4.33;;;3.33;;
26654;SDS011;14278;50.784;4.630;2023-07-22T06:40:04;3.03;;;2.60;;
26654;SDS011;14278;50.784;4.630;2023-07-22T06:42:31;4.37;;;3.07;;
26654;SDS011;14278;50.784;4.630;2023-07-22T06:44:56;4.87;;;2.50;;
26654;SDS011;14278;50.784;4.630;2023-07-22T06:47:22;5.80;;;3.43;;
26654;SDS011;14278;50.784;4.630;2023-07-22T06:49:48;3.67;;;3.00;;
26654;SDS011;14278;50.784;4.630;2023-07-22T06:52:15;4.43;;;2.77;;
26654;SDS011;14278;50.784;4.630;2023-07-22T06:54:42;3.40;;;2.90;;
26654;SDS011;14278;50.784;4.630;2023-07-22T06:57:08;2.53;;;2.23;;
26654;SDS011;14278;50.784;4.630;2023-07-22T06:59:34;4.53;;;3.17;;
26654;SDS011;14278;50.784;4.630;2023-07-22T07:02:00;4.93;;;2.73;;
26654;SDS011;14278;50.784;4.630;2023-07-22T07:04:26;9.70;;;3.67;;
26654;SDS011;14278;50.784;4.630;2023-07-22T07:06:52;6.33;;;2.87;;
26654;SDS011;14278;50.784;4.630;2023-07-22T07:09:18;2.80;;;2.60;;
26654;SDS011;14278;50.784;4.630;2023-07-22T07:11:44;2.87;;;2.47;;
26654;SDS011;14278;50.784;4.630;2023-07-22T07:14:10;4.50;;;2.23;;
26654;SDS011;14278;50.784;4.630;2023-07-22T07:16:36;6.03;;;2.80;;
26654;SDS011;14278;50.784;4.630;2023-07-22T07:19:02;4.27;;;2.37;;
26654;SDS011;14278;50.784;4.630;2023-07-22T07:21:28;7.17;;;2.33;;
26654;SDS011;14278;50.784;4.630;2023-07-22T07:23:54;7.63;;;2.57;;
26654;SDS011;14278;50.784;4.630;2023-07-22T07:26:20;3.87;;;1.93;;
26654;SDS011;14278;50.784;4.630;2023-07-22T07:28:47;4.30;;;2.60;;
26654;SDS011;14278;50.784;4.630;2023-07-22T07:31:14;3.37;;;2.47;;
26654;SDS011;14278;50.784;4.630;2023-07-22T07:33:40;7.93;;;3.20;;
26654;SDS011;14278;50.784;4.630;2023-07-22T07:36:06;2.23;;;1.80;;
26654;SDS011;14278;50.784;4.630;2023-07-22T07:38:31;3.57;;;2.37;;
26654;SDS011;14278;50.784;4.630;2023-07-22T07:40:58;4.10;;;2.23;;
26654;SDS011;14278;50.784;4.630;2023-07-22T07:43:26;2.93;;;2.20;;
26654;SDS011;14278;50.784;4.630;2023-07-22T07:48:54;2.78;;;2.00;;
26654;SDS011;14278;50.784;4.630;2023-07-22T07:51:21;4.43;;;2.33;;
26654;SDS011;14278;50.784;4.630;2023-07-22T07:53:49;2.85;;;1.75;;
26654;SDS011;14278;50.784;4.630;2023-07-22T07:56:16;2.03;;;1.70;;
26654;SDS011;14278;50.784;4.630;2023-07-22T07:58:43;3.17;;;2.08;;
26654;SDS011;14278;50.784;4.630;2023-07-22T08:01:10;4.00;;;1.63;;
26654;SDS011;14278;50.784;4.630;2023-07-22T08:03:36;2.08;;;1.60;;
26654;SDS011;14278;50.784;4.630;2023-07-22T08:06:03;5.35;;;2.13;;
26654;SDS011;14278;50.784;4.630;2023-07-22T08:08:30;2.92;;;1.85;;
26654;SDS011;14278;50.784;4.630;2023-07-22T08:11:03;5.15;;;2.15;;
26654;SDS011;14278;50.784;4.630;2023-07-22T08:13:34;2.97;;;1.83;;
26654;SDS011;14278;50.784;4.630;2023-07-22T08:16:01;2.83;;;1.60;;
26654;SDS011;14278;50.784;4.630;2023-07-22T08:18:28;2.28;;;2.08;;
26654;SDS011;14278;50.784;4.630;2023-07-22T08:20:55;2.38;;;1.48;;
26654;SDS011;14278;50.784;4.630;2023-07-22T08:23:21;1.85;;;1.25;;
26654;SDS011;14278;50.784;4.630;2023-07-22T08:25:47;1.50;;;1.23;;
26654;SDS011;14278;50.784;4.630;2023-07-22T08:28:13;5.22;;;1.73;;
26654;SDS011;14278;50.784;4.630;2023-07-22T08:30:40;3.45;;;2.38;;
26654;SDS011;14278;50.784;4.630;2023-07-22T08:33:07;3.40;;;1.33;;
26654;SDS011;14278;50.784;4.630;2023-07-22T08:35:34;2.40;;;1.58;;
26654;SDS011;14278;50.784;4.630;2023-07-22T08:38:01;2.72;;;1.80;;
26654;SDS011;14278;50.784;4.630;2023-07-22T08:40:38;1.60;;;1.35;;
26654;SDS011;14278;50.784;4.630;2023-07-22T08:43:05;3.85;;;1.55;;
26654;SDS011;14278;50.784;4.630;2023-07-22T08:45:36;1.83;;;1.35;;
26654;SDS011;14278;50.784;4.630;2023-07-22T08:48:07;1.15;;;1.10;;
26654;SDS011;14278;50.784;4.630;2023-07-22T08:53:16;2.40;;;1.48;;
26654;SDS011;14278;50.784;4.630;2023-07-22T08:55:44;2.13;;;1.73;;
26654;SDS011;14278;50.784;4.630;2023-07-22T08:58:11;1.73;;;1.55;;
26654;SDS011;14278;50.784;4.630;2023-07-22T09:00:38;2.63;;;1.58;;
26654;SDS011;14278;50.784;4.630;2023-07-22T09:03:04;1.27;;;1.17;;
26654;SDS011;14278;50.784;4.630;2023-07-22T09:05:36;1.15;;;1.05;;
26654;SDS011;14278;50.784;4.630;2023-07-22T09:08:03;2.47;;;1.45;;
26654;SDS011;14278;50.784;4.630;2023-07-22T09:10:32;1.40;;;1.30;;
26654;SDS011;14278;50.784;4.630;2023-07-22T09:13:02;2.05;;;1.50;;
26654;SDS011;14278;50.784;4.630;2023-07-22T09:15:28;2.47;;;1.48;;
26654;SDS011;14278;50.784;4.630;2023-07-22T09:17:55;1.33;;;1.23;;
26654;SDS011;14278;50.784;4.630;2023-07-22T09:20:20;1.48;;;1.38;;
26654;SDS011;14278;50.784;4.630;2023-07-22T09:22:48;1.48;;;1.35;;
26654;SDS011;14278;50.784;4.630;2023-07-22T09:25:17;1.48;;;1.33;;
26654;SDS011;14278;50.784;4.630;2023-07-22T09:27:47;1.10;;;1.00;;
26654;SDS011;14278;50.784;4.630;2023-07-22T09:32:49;1.27;;;1.05;;
26654;SDS011;14278;50.784;4.630;2023-07-22T09:35:16;1.58;;;1.15;;
26654;SDS011;14278;50.784;4.630;2023-07-22T09:37:43;1.35;;;1.05;;
26654;SDS011;14278;50.784;4.630;2023-07-22T09:40:27;1.52;;;1.20;;
26654;SDS011;14278;50.784;4.630;2023-07-22T09:42:54;1.40;;;1.15;;
26654;SDS011;14278;50.784;4.630;2023-07-22T09:45:28;0.98;;;0.95;;
26654;SDS011;14278;50.784;4.630;2023-07-22T09:47:56;1.20;;;1.05;;
26654;SDS011;14278;50.784;4.630;2023-07-22T09:50:23;0.85;;;0.85;;
26654;SDS011;14278;50.784;4.630;2023-07-22T09:52:51;1.30;;;1.20;;
26654;SDS011;14278;50.784;4.630;2023-07-22T09:55:22;1.77;;;1.10;;
26654;SDS011;14278;50.784;4.630;2023-07-22T09:57:52;1.50;;;1.13;;
26654;SDS011;14278;50.784;4.630;2023-07-22T10:00:20;3.80;;;1.15;;
26654;SDS011;14278;50.784;4.630;2023-07-22T10:02:48;1.35;;;0.80;;
26654;SDS011;14278;50.784;4.630;2023-07-22T10:05:18;0.80;;;0.63;;
26654;SDS011;14278;50.784;4.630;2023-07-22T10:07:51;1.25;;;1.15;;
26654;SDS011;14278;50.784;4.630;2023-07-22T10:10:20;1.17;;;1.08;;
26654;SDS011;14278;50.784;4.630;2023-07-22T10:12:52;2.03;;;1.13;;
26654;SDS011;14278;50.784;4.630;2023-07-22T10:15:19;1.17;;;0.90;;
26654;SDS011;14278;50.784;4.630;2023-07-22T10:17:45;1.17;;;1.08;;
26654;SDS011;14278;50.784;4.630;2023-07-22T10:20:12;1.42;;;1.20;;
26654;SDS011;14278;50.784;4.630;2023-07-22T10:22:41;3.03;;;1.20;;
26654;SDS011;14278;50.784;4.630;2023-07-22T10:25:10;0.75;;;0.75;;
26654;SDS011;14278;50.784;4.630;2023-07-22T10:27:40;2.38;;;0.90;;
26654;SDS011;14278;50.784;4.630;2023-07-22T10:30:08;0.70;;;0.70;;
26654;SDS011;14278;50.784;4.630;2023-07-22T10:32:36;1.10;;;0.88;;
26654;SDS011;14278;50.784;4.630;2023-07-22T10:35:03;1.17;;;0.73;;
26654;SDS011;14278;50.784;4.630;2023-07-22T10:37:33;1.30;;;1.00;;
26654;SDS011;14278;50.784;4.630;2023-07-22T10:40:17;3.15;;;0.68;;
26654;SDS011;14278;50.784;4.630;2023-07-22T10:42:52;0.50;;;0.50;;
26654;SDS011;14278;50.784;4.630;2023-07-22T10:45:29;0.50;;;0.50;;
26654;SDS011;14278;50.784;4.630;2023-07-22T10:48:00;0.57;;;0.57;;
26654;SDS011;14278;50.784;4.630;2023-07-22T10:53:08;0.95;;;0.77;;
26654;SDS011;14278;50.784;4.630;2023-07-22T11:01:21;0.50;;;0.50;;
26654;SDS011;14278;50.784;4.630;2023-07-22T11:04:05;1.00;;;0.57;;
26654;SDS011;14278;50.784;4.630;2023-07-22T11:06:40;0.63;;;0.63;;
26654;SDS011;14278;50.784;4.630;2023-07-22T11:11:56;0.93;;;0.77;;
26654;SDS011;14278;50.784;4.630;2023-07-22T11:14:27;0.60;;;0.60;;
26654;SDS011;14278;50.784;4.630;2023-07-22T11:17:03;0.88;;;0.75;;
26654;SDS011;14278;50.784;4.630;2023-07-22T11:19:29;0.80;;;0.80;;
26654;SDS011;14278;50.784;4.630;2023-07-22T11:21:56;0.60;;;0.60;;
26654;SDS011;14278;50.784;4.630;2023-07-22T11:24:23;0.50;;;0.50;;
26654;SDS011;14278;50.784;4.630;2023-07-22T11:26:49;4.70;;;1.10;;
26654;SDS011;14278;50.784;4.630;2023-07-22T11:29:16;1.25;;;0.90;;
26654;SDS011;14278;50.784;4.630;2023-07-22T11:31:44;1.10;;;1.00;;
26654;SDS011;14278;50.784;4.630;2023-07-22T11:36:37;0.85;;;0.75;;
26654;SDS011;14278;50.784;4.630;2023-07-22T11:39:07;0.75;;;0.75;;
26654;SDS011;14278;50.784;4.630;2023-07-22T11:41:35;0.90;;;0.90;;
26654;SDS011;14278;50.784;4.630;2023-07-22T11:44:02;1.17;;;1.08;;
26654;SDS011;14278;50.784;4.630;2023-07-22T11:46:34;1.90;;;1.02;;
26654;SDS011;14278;50.784;4.630;2023-07-22T11:49:01;2.45;;;1.17;;
26654;SDS011;14278;50.784;4.630;2023-07-22T11:51:28;0.50;;;0.50;;
26654;SDS011;14278;50.784;4.630;2023-07-22T11:53:54;1.23;;;1.13;;
26654;SDS011;14278;50.784;4.630;2023-07-22T11:56:25;14.38;;;1.20;;
26654;SDS011;14278;50.784;4.630;2023-07-22T11:58:52;0.55;;;0.55;;
26654;SDS011;14278;50.784;4.630;2023-07-22T12:01:19;1.30;;;0.90;;
26654;SDS011;14278;50.784;4.630;2023-07-22T12:03:45;1.80;;;0.93;;
26654;SDS011;14278;50.784;4.630;2023-07-22T12:06:12;0.95;;;0.95;;
26654;SDS011;14278;50.784;4.630;2023-07-22T12:08:45;1.42;;;1.33;;
26654;SDS011;14278;50.784;4.630;2023-07-22T12:11:15;1.40;;;0.98;;
26654;SDS011;14278;50.784;4.630;2023-07-22T12:13:43;1.70;;;1.20;;
26654;SDS011;14278;50.784;4.630;2023-07-22T12:16:20;1.00;;;0.98;;
26654;SDS011;14278;50.784;4.630;2023-07-22T12:18:48;1.02;;;1.02;;
26654;SDS011;14278;50.784;4.630;2023-07-22T12:21:14;1.80;;;1.23;;
26654;SDS011;14278;50.784;4.630;2023-07-22T12:23:41;1.13;;;1.02;;
26654;SDS011;14278;50.784;4.630;2023-07-22T12:26:08;1.02;;;0.93;;
26654;SDS011;14278;50.784;4.630;2023-07-22T12:28:34;1.77;;;1.30;;
26654;SDS011;14278;50.784;4.630;2023-07-22T12:31:00;1.60;;;1.17;;
26654;SDS011;14278;50.784;4.630;2023-07-22T12:33:26;0.80;;;0.80;;
26654;SDS011;14278;50.784;4.630;2023-07-22T12:35:53;1.98;;;1.60;;
26654;SDS011;14278;50.784;4.630;2023-07-22T12:38:19;1.00;;;0.90;;
26654;SDS011;14278;50.784;4.630;2023-07-22T12:40:45;1.30;;;1.20;;
26654;SDS011;14278;50.784;4.630;2023-07-22T12:43:11;1.02;;;1.02;;
26654;SDS011;14278;50.784;4.630;2023-07-22T12:45:37;1.30;;;1.20;;
26654;SDS011;14278;50.784;4.630;2023-07-22T12:48:03;2.40;;;1.45;;
26654;SDS011;14278;50.784;4.630;2023-07-22T12:50:30;2.42;;;1.48;;
26654;SDS011;14278;50.784;4.630;2023-07-22T12:52:57;1.45;;;1.20;;
26654;SDS011;14278;50.784;4.630;2023-07-22T12:55:23;0.70;;;0.70;;
26654;SDS011;14278;50.784;4.630;2023-07-22T12:57:49;0.80;;;0.80;;
26654;SDS011;14278;50.784;4.630;2023-07-22T13:00:15;1.33;;;0.85;;
26654;SDS011;14278;50.784;4.630;2023-07-22T13:02:41;1.20;;;0.90;;
26654;SDS011;14278;50.784;4.630;2023-07-22T13:05:07;2.20;;;1.02;;
26654;SDS011;14278;50.784;4.630;2023-07-22T13:07:34;1.10;;;0.90;;
26654;SDS011;14278;50.784;4.630;2023-07-22T13:10:00;1.02;;;0.70;;
26654;SDS011;14278;50.784;4.630;2023-07-22T13:12:28;1.45;;;1.05;;
26654;SDS011;14278;50.784;4.630;2023-07-22T13:14:54;1.45;;;1.15;;
26654;SDS011;14278;50.784;4.630;2023-07-22T13:17:20;1.13;;;1.02;;
26654;SDS011;14278;50.784;4.630;2023-07-22T13:19:46;8.07;;;0.82;;
26654;SDS011;14278;50.784;4.630;2023-07-22T13:22:12;1.38;;;0.85;;
26654;SDS011;14278;50.784;4.630;2023-07-22T13:24:38;0.45;;;0.45;;
26654;SDS011;14278;50.784;4.630;2023-07-22T13:27:04;7.45;;;0.82;;
26654;SDS011;14278;50.784;4.630;2023-07-22T13:29:31;1.63;;;1.10;;
26654;SDS011;14278;50.784;4.630;2023-07-22T13:31:56;1.17;;;1.00;;
26654;SDS011;14278;50.784;4.630;2023-07-22T13:34:22;0.88;;;0.68;;
26654;SDS011;14278;50.784;4.630;2023-07-22T13:36:48;0.80;;;0.77;;
26654;SDS011;14278;50.784;4.630;2023-07-22T13:39:14;0.77;;;0.77;;
26654;SDS011;14278;50.784;4.630;2023-07-22T13:41:40;1.98;;;0.55;;
26654;SDS011;14278;50.784;4.630;2023-07-22T13:44:06;1.00;;;0.80;;
26654;SDS011;14278;50.784;4.630;2023-07-22T13:46:32;0.60;;;0.60;;
26654;SDS011;14278;50.784;4.630;2023-07-22T13:48:58;1.08;;;0.63;;
26654;SDS011;14278;50.784;4.630;2023-07-22T13:51:24;0.75;;;0.75;;
26654;SDS011;14278;50.784;4.630;2023-07-22T13:53:49;0.70;;;0.70;;
26654;SDS011;14278;50.784;4.630;2023-07-22T13:56:17;0.40;;;0.40;;
26654;SDS011;14278;50.784;4.630;2023-07-22T13:58:43;4.97;;;0.70;;
26654;SDS011;14278;50.784;4.630;2023-07-22T14:01:09;0.43;;;0.43;;
26654;SDS011;14278;50.784;4.630;2023-07-22T14:03:35;1.40;;;1.00;;
26654;SDS011;14278;50.784;4.630;2023-07-22T14:06:00;1.08;;;0.98;;
26654;SDS011;14278;50.784;4.630;2023-07-22T14:08:26;1.52;;;1.08;;
26654;SDS011;14278;50.784;4.630;2023-07-22T14:10:52;1.52;;;0.90;;
26654;SDS011;14278;50.784;4.630;2023-07-22T14:13:18;1.23;;;1.00;;
26654;SDS011;14278;50.784;4.630;2023-07-22T14:15:44;0.93;;;0.90;;
26654;SDS011;14278;50.784;4.630;2023-07-22T14:18:10;1.13;;;0.75;;
26654;SDS011;14278;50.784;4.630;2023-07-22T14:20:36;0.73;;;0.73;;
26654;SDS011;14278;50.784;4.630;2023-07-22T14:23:01;0.82;;;0.82;;
26654;SDS011;14278;50.784;4.630;2023-07-22T14:25:30;2.60;;;0.85;;
26654;SDS011;14278;50.784;4.630;2023-07-22T14:27:55;0.68;;;0.68;;
26654;SDS011;14278;50.784;4.630;2023-07-22T14:30:21;1.85;;;0.70;;
26654;SDS011;14278;50.784;4.630;2023-07-22T14:32:47;0.80;;;0.80;;
26654;SDS011;14278;50.784;4.630;2023-07-22T14:35:12;1.75;;;1.25;;
26654;SDS011;14278;50.784;4.630;2023-07-22T14:37:39;1.33;;;0.82;;
26654;SDS011;14278;50.784;4.630;2023-07-22T14:40:05;1.25;;;0.80;;
26654;SDS011;14278;50.784;4.630;2023-07-22T14:42:33;0.52;;;0.52;;
26654;SDS011;14278;50.784;4.630;2023-07-22T14:44:59;0.70;;;0.70;;
26654;SDS011;14278;50.784;4.630;2023-07-22T14:47:25;4.00;;;1.42;;
26654;SDS011;14278;50.784;4.630;2023-07-22T14:49:51;0.57;;;0.57;;
26654;SDS011;14278;50.784;4.630;2023-07-22T14:52:17;1.15;;;1.05;;
26654;SDS011;14278;50.784;4.630;2023-07-22T14:54:43;7.05;;;1.00;;
26654;SDS011;14278;50.784;4.630;2023-07-22T14:57:09;1.73;;;0.52;;
26654;SDS011;14278;50.784;4.630;2023-07-22T14:59:34;1.02;;;0.80;;
26654;SDS011;14278;50.784;4.630;2023-07-22T15:02:01;1.98;;;0.70;;
26654;SDS011;14278;50.784;4.630;2023-07-22T15:04:26;0.90;;;0.75;;
26654;SDS011;14278;50.784;4.630;2023-07-22T15:06:52;0.50;;;0.50;;
26654;SDS011;14278;50.784;4.630;2023-07-22T15:09:18;3.10;;;1.05;;